Date,TemperatureHighF,TemperatureAvgF,TemperatureLowF,DewpointHighF,DewpointAvgF,DewpointLowF,HumidityHigh,HumidityAvg,HumidityLow,PressureMaxIn,PressureMinIn,WindSpeedMaxMPH,WindSpeedAvgMPH,GustSpeedMaxMPH,PrecipitationSumIn
2013-6-1,80,63,49,54,51,46,91,67,40,30.22,30.01,0,-999,0,0.00
2013-6-2,75,64,56,53,52,50,86,66,43,30.07,30.02,0,-999,0,0.00
2013-6-3,77,62,50,54,51,49,96,69,37,30.09,30.00,0,-999,0,0.00
2013-6-4,83,66,53,55,51,48,83,60,33,30.06,29.95,0,-999,0,0.00
2013-6-5,87,72,58,59,54,51,80,58,29,30.06,29.95,0,-999,0,0.01
2013-6-6,87,69,58,58,56,54,86,65,34,30.02,29.96,0,-999,0,0.01
2013-6-7,92,75,60,59,53,45,80,49,24,30.12,30.05,0,-999,0,0.01
2013-6-8,83,66,52,54,50,42,91,60,25,30.15,30.02,0,-999,0,0.00
2013-6-9,79,64,53,51,48,45,83,60,31,30.09,29.95,0,-999,0,0.00
2013-6-10,75,60,48,50,46,42,86,61,36,29.99,29.87,0,-999,0,0.00
2013-6-11,70,60,53,53,46,41,79,59,38,30.15,29.99,0,-999,0,0.00
2013-6-12,69,59,50,49,47,45,88,66,43,30.18,30.13,0,-999,0,0.00
2013-6-13,69,57,50,58,52,46,95,82,60,30.29,30.17,0,-999,0,0.29
2013-6-14,73,59,47,52,50,46,97,73,44,30.29,29.96,0,-999,0,0.01
2013-6-15,85,66,52,60,53,48,92,65,31,30.02,29.89,0,-999,0,0.02
2013-6-16,84,64,50,57,53,49,94,68,39,30.11,30.02,0,-999,0,0.00
2013-6-17,84,64,50,53,50,48,94,65,30,30.11,29.95,0,-999,0,0.00
2013-6-18,74,61,51,60,50,47,91,67,40,30.01,29.93,0,-999,0,0.06
2013-6-19,69,59,50,57,50,47,91,74,49,30.10,29.96,0,-999,0,0.11
2013-6-20,74,60,51,60,52,49,94,76,42,30.12,30.06,0,-999,0,0.17
2013-6-21,79,64,55,53,51,49,88,65,37,30.16,30.09,0,-999,0,0.01
2013-6-22,90,69,53,57,52,46,91,60,22,30.09,29.85,0,-999,0,0.00
2013-6-23,82,68,61,64,59,53,95,72,44,29.86,29.64,0,-999,0,0.24
2013-6-24,70,62,56,60,56,52,95,83,55,29.71,29.66,0,-999,0,0.07
2013-6-25,72,64,58,63,58,54,95,82,59,29.85,29.67,0,-999,0,0.40
2013-6-26,80,68,60,62,59,56,96,75,45,30.02,29.84,0,-999,0,0.12
2013-6-27,91,73,60,62,60,58,91,66,35,30.13,30.00,0,-999,0,0.00
2013-6-28,94,75,60,67,60,55,90,64,32,30.13,30.01,0,-999,0,0.01
2013-6-29,92,75,62,63,59,57,82,59,32,30.09,29.94,0,-999,0,0.01
2013-6-30,97,78,63,71,62,58,85,60,30,29.95,29.82,0,-999,0,0.00